createdAt,value
2023-04-26T00:00:09.342Z,6.12
2023-04-26T00:02:37.639Z,6.13
2023-04-26T00:05:07.925Z,6.42
2023-04-26T00:07:38.079Z,6.38
2023-04-26T00:10:06.511Z,6.26
2023-04-26T00:12:34.625Z,6.17
2023-04-26T00:15:03.984Z,6.29
2023-04-26T00:17:32.102Z,6.08
2023-04-26T00:19:59.968Z,6.21
2023-04-26T00:22:28.080Z,6.23
2023-04-26T00:24:56.167Z,6.21
2023-04-26T00:27:24.065Z,6.16
2023-04-26T00:29:51.965Z,6.07
2023-04-26T00:32:21.252Z,6.03
2023-04-26T00:34:49.148Z,6.09
2023-04-26T00:37:17.067Z,6.06
2023-04-26T00:39:44.929Z,6.05
2023-04-26T00:42:12.843Z,6.03
2023-04-26T00:44:41.307Z,5.90
2023-04-26T00:47:09.611Z,5.83
2023-04-26T00:49:38.901Z,5.66
2023-04-26T00:52:07.679Z,5.75
2023-04-26T00:54:35.771Z,5.66
2023-04-26T00:57:04.179Z,5.66
2023-04-26T00:59:32.449Z,5.63
2023-04-26T01:02:00.728Z,5.53
2023-04-26T01:04:30.469Z,5.57
2023-04-26T01:07:00.780Z,5.62
2023-04-26T01:09:29.739Z,5.42
2023-04-26T01:11:58.707Z,5.56
2023-04-26T01:14:27.154Z,5.60
2023-04-26T01:16:55.596Z,5.43
2023-04-26T01:19:23.568Z,5.26
2023-04-26T01:21:51.488Z,5.35
2023-04-26T01:24:20.751Z,5.23
2023-04-26T01:26:48.969Z,5.35
2023-04-26T01:29:17.597Z,5.30
2023-04-26T01:31:46.324Z,5.25
2023-04-26T01:34:14.432Z,5.23
2023-04-26T01:36:42.830Z,5.22
2023-04-26T01:39:10.842Z,5.16
2023-04-26T01:41:40.816Z,5.04
2023-04-26T01:44:09.055Z,5.23
2023-04-26T01:46:37.006Z,5.26
2023-04-26T01:49:04.944Z,5.22
2023-04-26T01:51:32.905Z,5.25
2023-04-26T01:54:00.925Z,5.20
2023-04-26T01:56:28.894Z,5.15
2023-04-26T01:58:59.265Z,5.07
2023-04-26T02:01:27.488Z,5.09
2023-04-26T02:03:55.447Z,5.12
2023-04-26T02:06:23.517Z,5.11
2023-04-26T02:08:51.669Z,4.94
2023-04-26T02:11:19.940Z,5.00
2023-04-26T02:13:47.909Z,5.07
2023-04-26T02:16:17.262Z,5.03
2023-04-26T02:18:45.575Z,5.03
2023-04-26T02:21:13.499Z,5.01
2023-04-26T02:23:41.533Z,4.94
2023-04-26T02:26:09.483Z,4.93
2023-04-26T02:28:37.467Z,4.88
2023-04-26T02:31:05.914Z,4.83
2023-04-26T02:33:35.602Z,4.76
2023-04-26T02:36:05.598Z,4.79
2023-04-26T02:38:36.408Z,4.83
2023-04-26T02:41:05.995Z,4.81
2023-04-26T02:43:33.908Z,4.80
2023-04-26T02:46:01.828Z,4.60
2023-04-26T02:48:29.774Z,4.70
2023-04-26T02:50:59.052Z,4.58
2023-04-26T02:53:26.954Z,4.75
2023-04-26T02:55:54.818Z,4.73
2023-04-26T02:58:22.734Z,4.72
2023-04-26T03:00:50.800Z,4.65
2023-04-26T03:03:19.073Z,4.61
2023-04-26T03:05:47.325Z,4.66
2023-04-26T03:08:16.717Z,4.54
2023-04-26T03:10:45.924Z,4.47
2023-04-26T03:13:13.838Z,4.42
2023-04-26T03:15:45.779Z,4.48
2023-04-26T03:18:13.726Z,4.45
2023-04-26T03:20:42.077Z,4.55
2023-04-26T03:23:10.050Z,4.52
2023-04-26T03:25:39.679Z,4.39
2023-04-26T03:28:07.725Z,4.37
2023-04-26T03:30:35.610Z,4.44
2023-04-26T03:33:03.863Z,4.41
2023-04-26T03:35:31.817Z,4.47
2023-04-26T03:37:59.756Z,4.50
2023-04-26T03:40:27.688Z,4.44
2023-04-26T03:42:57.042Z,4.48
2023-04-26T03:45:26.770Z,4.43
2023-04-26T03:47:55.033Z,4.47
2023-04-26T03:50:23.027Z,4.33
2023-04-26T03:52:50.968Z,4.27
2023-04-26T03:55:18.971Z,4.23
2023-04-26T03:57:46.884Z,4.21
2023-04-26T04:00:17.020Z,4.14
2023-04-26T04:02:46.310Z,4.14
2023-04-26T04:05:14.585Z,4.20
2023-04-26T04:07:43.016Z,4.04
2023-04-26T04:10:11.765Z,3.90
2023-04-26T04:12:39.706Z,3.95
2023-04-26T04:15:08.628Z,4.11
2023-04-26T04:17:38.804Z,4.05
2023-04-26T04:20:08.975Z,3.94
2023-04-26T04:22:36.966Z,3.97
2023-04-26T04:25:06.041Z,3.60
2023-04-26T04:27:34.090Z,3.83
2023-04-26T04:30:04.288Z,3.82
2023-04-26T04:32:33.277Z,3.98
2023-04-26T04:35:03.140Z,3.46
2023-04-26T04:37:33.166Z,3.57
2023-04-26T04:40:01.412Z,3.72
2023-04-26T04:42:29.394Z,3.84
2023-04-26T04:44:59.938Z,3.96
2023-04-26T04:47:27.908Z,3.89
2023-04-26T04:49:55.867Z,3.78
2023-04-26T04:52:25.232Z,3.85
2023-04-26T04:54:53.252Z,3.98
2023-04-26T04:57:21.205Z,3.95
2023-04-26T04:59:49.129Z,4.10
2023-04-26T05:02:17.272Z,3.91
2023-04-26T05:04:45.374Z,4.10
2023-04-26T05:07:15.678Z,4.13
2023-04-26T05:09:45.757Z,4.25
2023-04-26T05:12:13.758Z,4.29
2023-04-26T05:14:41.999Z,4.37
2023-04-26T05:17:09.925Z,4.54
2023-04-26T05:19:37.868Z,4.61
2023-04-26T05:22:05.889Z,4.74
2023-04-26T05:24:34.539Z,4.78
2023-04-26T05:27:04.276Z,4.79
2023-04-26T05:29:32.409Z,4.87
2023-04-26T05:32:00.378Z,4.79
2023-04-26T05:34:28.316Z,4.97
2023-04-26T05:36:56.428Z,4.97
2023-04-26T05:39:24.416Z,5.07
2023-04-26T05:41:52.482Z,5.09
2023-04-26T05:44:24.435Z,5.18
2023-04-26T05:46:52.319Z,5.31
2023-04-26T05:49:20.505Z,5.35
2023-04-26T05:51:48.452Z,5.33
2023-04-26T05:54:16.447Z,5.39
2023-04-26T05:56:44.324Z,5.55
2023-04-26T05:59:13.813Z,5.60
2023-04-26T06:01:43.138Z,5.57
2023-04-26T06:04:12.034Z,5.57
2023-04-26T06:06:40.736Z,5.56
2023-04-26T06:09:08.773Z,5.63
2023-04-26T06:11:36.760Z,5.56
2023-04-26T06:14:04.754Z,5.70
2023-04-26T06:16:32.671Z,5.83
2023-04-26T06:19:02.027Z,6.00
2023-04-26T06:21:30.301Z,5.65
2023-04-26T06:23:58.254Z,6.15
2023-04-26T06:26:26.164Z,6.39
2023-04-26T06:28:54.003Z,6.55
2023-04-26T06:31:23.015Z,6.39
2023-04-26T06:33:51.206Z,6.30
2023-04-26T06:36:20.745Z,6.15
2023-04-26T06:38:48.826Z,6.36
2023-04-26T06:41:16.733Z,6.36
2023-04-26T06:43:44.591Z,6.29
2023-04-26T06:46:12.802Z,6.45
2023-04-26T06:48:40.908Z,6.39
2023-04-26T06:51:09.662Z,6.31
2023-04-26T06:53:38.938Z,6.44
2023-04-26T06:56:07.273Z,6.48
2023-04-26T06:58:36.588Z,6.77
2023-04-26T07:01:06.373Z,6.69
2023-04-26T07:03:34.468Z,6.78
2023-04-26T07:06:02.550Z,6.58
2023-04-26T07:08:31.393Z,6.85
2023-04-26T07:11:00.676Z,7.22
2023-04-26T07:13:28.564Z,7.47
2023-04-26T07:15:56.559Z,7.25
2023-04-26T07:18:24.464Z,7.39
2023-04-26T07:20:52.358Z,7.58
2023-04-26T07:23:20.263Z,7.73
2023-04-26T07:25:48.198Z,7.81
2023-04-26T07:28:17.647Z,7.74
2023-04-26T07:30:45.613Z,7.74
2023-04-26T07:33:13.561Z,7.26
2023-04-26T07:35:41.507Z,7.29
2023-04-26T07:38:09.863Z,7.30
2023-04-26T07:40:38.760Z,7.25
2023-04-26T07:43:06.665Z,7.17
2023-04-26T07:45:35.960Z,7.26
2023-04-26T07:48:03.929Z,7.26
2023-04-26T07:50:31.939Z,7.74
2023-04-26T07:52:59.854Z,7.82
2023-04-26T07:55:27.823Z,7.52
2023-04-26T07:57:55.857Z,7.63
2023-04-26T08:00:24.061Z,8.44
2023-04-26T08:02:53.659Z,8.71
2023-04-26T08:05:22.182Z,9.20
2023-04-26T08:07:50.234Z,9.09
2023-04-26T08:10:18.261Z,8.74
2023-04-26T08:12:46.400Z,8.33
2023-04-26T08:15:14.412Z,8.77
2023-04-26T08:17:42.628Z,8.61
2023-04-26T08:20:13.093Z,8.16
2023-04-26T08:22:41.038Z,8.00
2023-04-26T08:25:09.760Z,8.35
2023-04-26T08:27:37.742Z,8.39
2023-04-26T08:30:06.478Z,8.44
2023-04-26T08:32:35.557Z,8.58
2023-04-26T08:35:03.480Z,8.32
2023-04-26T08:37:32.734Z,8.77
2023-04-26T08:40:00.610Z,9.06
2023-04-26T08:42:29.650Z,9.07
2023-04-26T08:45:02.639Z,9.16
2023-04-26T08:47:36.515Z,8.88
2023-04-26T08:50:05.090Z,9.10
2023-04-26T08:52:34.552Z,8.88
2023-04-26T08:55:05.026Z,9.02
2023-04-26T08:57:33.919Z,9.08
2023-04-26T09:00:05.733Z,9.15
2023-04-26T09:02:34.289Z,8.88
2023-04-26T09:05:02.607Z,9.22
2023-04-26T09:07:33.214Z,9.12
2023-04-26T09:10:05.972Z,8.78
2023-04-26T09:12:33.954Z,8.91
2023-04-26T09:15:02.278Z,9.54
2023-04-26T09:17:32.039Z,9.86
2023-04-26T09:20:01.277Z,10.23
2023-04-26T09:22:30.636Z,10.27
2023-04-26T09:24:58.896Z,9.60
2023-04-26T09:27:36.243Z,9.76
2023-04-26T09:30:10.522Z,9.96
2023-04-26T09:32:50.183Z,9.97
2023-04-26T09:35:27.492Z,9.92
2023-04-26T09:38:03.372Z,10.05
2023-04-26T09:40:35.872Z,10.02
2023-04-26T09:43:06.490Z,10.18
2023-04-26T09:45:43.851Z,11.11
2023-04-26T09:48:22.065Z,10.75
2023-04-26T09:50:52.564Z,10.44
2023-04-26T09:53:29.034Z,10.45
2023-04-26T09:55:57.319Z,10.55
2023-04-26T09:58:26.811Z,10.15
2023-04-26T10:00:56.064Z,10.97
2023-04-26T10:03:24.305Z,10.66
2023-04-26T10:05:52.851Z,11.41
2023-04-26T10:08:20.863Z,11.66
2023-04-26T10:10:49.233Z,11.76
2023-04-26T10:13:17.721Z,10.88
2023-04-26T10:15:49.097Z,11.28
2023-04-26T10:18:17.370Z,10.77
2023-04-26T10:20:49.600Z,10.14
2023-04-26T10:23:22.179Z,10.77
2023-04-26T10:25:50.321Z,10.86
2023-04-26T10:28:19.174Z,10.89
2023-04-26T10:31:07.175Z,11.08
2023-04-26T10:33:35.268Z,11.37
2023-04-26T10:36:09.226Z,11.46
2023-04-26T10:38:38.965Z,12.14
2023-04-26T10:41:29.638Z,12.32
2023-04-26T10:43:57.713Z,12.20
2023-04-26T10:46:38.502Z,12.91
2023-04-26T10:49:17.098Z,13.17
2023-04-26T10:52:11.708Z,12.17
2023-04-26T10:54:56.592Z,11.72
2023-04-26T10:57:27.082Z,11.64
2023-04-26T11:00:17.951Z,11.87
2023-04-26T11:03:00.761Z,12.14
2023-04-26T11:05:53.595Z,12.30
2023-04-26T11:08:25.661Z,12.25
2023-04-26T11:11:06.918Z,12.33
2023-04-26T11:13:37.195Z,12.39
2023-04-26T11:16:07.182Z,12.45
2023-04-26T11:18:37.773Z,11.89
2023-04-26T11:21:07.211Z,12.06
2023-04-26T11:23:36.744Z,12.35
2023-04-26T11:26:06.713Z,12.96
2023-04-26T11:28:35.617Z,12.89
2023-04-26T11:31:04.455Z,13.08
2023-04-26T11:33:34.514Z,13.36
2023-04-26T11:36:04.965Z,13.34
2023-04-26T11:38:32.929Z,12.77
2023-04-26T11:41:01.881Z,12.39
2023-04-26T11:43:36.957Z,12.53
2023-04-26T11:46:06.917Z,12.56
2023-04-26T11:48:37.151Z,12.42
2023-04-26T11:51:08.317Z,13.37
2023-04-26T11:53:37.690Z,13.50
2023-04-26T11:56:06.718Z,13.60
2023-04-26T11:58:34.623Z,13.50
2023-04-26T12:01:03.510Z,13.56
2023-04-26T12:03:33.329Z,13.42
2023-04-26T12:06:02.243Z,12.75
2023-04-26T12:08:33.442Z,13.16
2023-04-26T12:11:02.647Z,13.45
2023-04-26T12:13:32.027Z,13.83
2023-04-26T12:16:00.064Z,14.58
2023-04-26T12:18:34.160Z,14.77
2023-04-26T12:21:02.612Z,14.58
2023-04-26T12:23:40.990Z,14.47
2023-04-26T12:26:11.268Z,14.39
2023-04-26T12:28:39.217Z,14.25
2023-04-26T12:31:07.614Z,14.36
2023-04-26T12:33:36.095Z,13.55
2023-04-26T12:36:08.535Z,12.95
2023-04-26T12:38:38.015Z,13.64
2023-04-26T12:41:06.360Z,14.04
2023-04-26T12:43:34.319Z,13.64
2023-04-26T12:46:02.664Z,14.10
2023-04-26T12:48:30.668Z,13.69
2023-04-26T12:50:58.603Z,13.70
2023-04-26T12:53:27.035Z,13.91
2023-04-26T12:55:56.492Z,13.83
2023-04-26T12:58:25.531Z,14.76
2023-04-26T13:00:53.556Z,15.20
2023-04-26T13:03:21.683Z,15.05
2023-04-26T13:05:49.790Z,15.21
2023-04-26T13:08:17.780Z,15.36
2023-04-26T13:10:45.730Z,14.71
2023-04-26T13:13:15.030Z,14.56
2023-04-26T13:15:42.977Z,14.00
2023-04-26T13:18:11.077Z,14.58
2023-04-26T13:20:39.097Z,14.84
2023-04-26T13:23:07.029Z,14.75
2023-04-26T13:25:34.930Z,14.32
2023-04-26T13:28:03.130Z,13.90
2023-04-26T13:30:33.158Z,13.75
2023-04-26T13:33:01.224Z,13.45
2023-04-26T13:35:29.178Z,13.77
2023-04-26T13:37:57.140Z,14.57
2023-04-26T13:40:25.228Z,14.29
2023-04-26T13:42:53.185Z,14.45
2023-04-26T13:45:21.324Z,14.26
2023-04-26T13:47:50.675Z,14.07
2023-04-26T13:50:19.741Z,14.30
2023-04-26T13:52:49.677Z,14.43
2023-04-26T13:55:17.650Z,14.16
2023-04-26T13:57:45.758Z,13.86
2023-04-26T14:00:15.161Z,13.96
2023-04-26T14:02:43.480Z,13.86
2023-04-26T14:05:14.179Z,14.36
2023-04-26T14:07:42.625Z,14.37
2023-04-26T14:10:11.308Z,13.86
2023-04-26T14:12:39.314Z,14.32
2023-04-26T14:15:08.609Z,14.01
2023-04-26T14:17:36.592Z,14.19
2023-04-26T14:20:06.840Z,13.82
2023-04-26T14:22:36.210Z,13.84
2023-04-26T14:25:04.364Z,13.74
2023-04-26T14:27:32.741Z,14.12
2023-04-26T14:30:00.651Z,14.35
2023-04-26T14:32:28.628Z,13.84
2023-04-26T14:34:56.540Z,14.00
2023-04-26T14:37:24.456Z,13.78
2023-04-26T14:39:53.771Z,13.84
2023-04-26T14:42:22.085Z,13.96
2023-04-26T14:44:50.047Z,13.83
2023-04-26T14:47:18.054Z,14.29
2023-04-26T14:49:45.932Z,15.06
2023-04-26T14:52:13.906Z,15.47
2023-04-26T14:54:42.579Z,15.56
2023-04-26T14:57:11.918Z,15.24
2023-04-26T14:59:39.819Z,15.18
2023-04-26T15:02:08.239Z,15.51
2023-04-26T15:04:37.544Z,15.71
2023-04-26T15:07:05.709Z,15.62
2023-04-26T15:09:33.968Z,15.69
2023-04-26T15:12:02.583Z,15.43
2023-04-26T15:14:32.115Z,15.21
2023-04-26T15:17:00.407Z,15.33
2023-04-26T15:19:28.443Z,15.49
2023-04-26T15:21:56.390Z,16.00
2023-04-26T15:24:24.264Z,16.39
2023-04-26T15:26:52.186Z,16.38
2023-04-26T15:29:20.121Z,16.21
2023-04-26T15:31:49.500Z,15.31
2023-04-26T15:34:17.392Z,14.81
2023-04-26T15:36:45.335Z,15.50
2023-04-26T15:39:13.245Z,15.53
2023-04-26T15:41:41.141Z,14.97
2023-04-26T15:44:09.045Z,14.53
2023-04-26T15:46:38.161Z,14.50
2023-04-26T15:49:07.643Z,14.79
2023-04-26T15:51:35.963Z,14.65
2023-04-26T15:54:03.830Z,14.48
2023-04-26T15:56:31.769Z,14.53
2023-04-26T15:58:59.669Z,14.45
2023-04-26T16:01:29.393Z,14.67
2023-04-26T16:03:57.428Z,14.59
2023-04-26T16:06:27.357Z,14.25
2023-04-26T16:08:55.321Z,14.26
2023-04-26T16:11:23.243Z,14.38
2023-04-26T16:13:52.014Z,14.30
2023-04-26T16:16:20.373Z,14.15
2023-04-26T16:18:48.304Z,14.12
2023-04-26T16:21:16.272Z,14.42
2023-04-26T16:23:45.577Z,14.66
2023-04-26T16:26:13.520Z,14.57
2023-04-26T16:28:41.802Z,14.46
2023-04-26T16:31:09.765Z,14.48
2023-04-26T16:33:37.678Z,14.56
2023-04-26T16:36:06.228Z,14.29
2023-04-26T16:38:34.203Z,14.41
2023-04-26T16:41:03.840Z,14.30
2023-04-26T16:43:32.904Z,14.35
2023-04-26T16:46:02.164Z,14.60
2023-04-26T16:48:32.900Z,14.52
2023-04-26T16:51:00.970Z,14.62
2023-04-26T16:53:29.013Z,14.43
2023-04-26T16:55:57.153Z,14.39
2023-04-26T16:58:26.697Z,14.64
2023-04-26T17:00:54.649Z,14.74
2023-04-26T17:03:24.180Z,14.54
2023-04-26T17:05:52.596Z,14.33
2023-04-26T17:08:20.969Z,14.18
2023-04-26T17:10:49.550Z,14.39
2023-04-26T17:13:17.602Z,14.44
2023-04-26T17:15:47.338Z,14.21
2023-04-26T17:18:15.285Z,14.10
2023-04-26T17:20:43.195Z,13.86
2023-04-26T17:23:11.809Z,13.97
2023-04-26T17:25:39.722Z,13.66
2023-04-26T17:28:07.692Z,13.74
2023-04-26T17:30:35.576Z,13.55
2023-04-26T17:33:05.517Z,13.44
2023-04-26T17:35:33.516Z,13.64
2023-04-26T17:38:01.434Z,13.71
2023-04-26T17:40:29.351Z,13.73
2023-04-26T17:42:57.324Z,13.61
2023-04-26T17:45:25.496Z,13.71
2023-04-26T17:47:53.562Z,13.64
2023-04-26T17:50:23.975Z,13.53
2023-04-26T17:52:51.933Z,13.53
2023-04-26T17:55:19.869Z,13.29
2023-04-26T17:57:47.801Z,13.23
2023-04-26T18:00:16.664Z,13.23
2023-04-26T18:02:44.725Z,13.16
2023-04-26T18:05:13.445Z,13.17
2023-04-26T18:07:42.869Z,13.07
2023-04-26T18:10:11.317Z,12.98
2023-04-26T18:12:39.943Z,12.99
2023-04-26T18:15:09.079Z,12.94
2023-04-26T18:17:37.413Z,12.96
2023-04-26T18:20:06.694Z,12.89
2023-04-26T18:22:35.615Z,12.84
2023-04-26T18:25:05.552Z,12.84
2023-04-26T18:27:33.990Z,12.71
2023-04-26T18:30:02.157Z,12.72
2023-04-26T18:32:30.329Z,12.67
2023-04-26T18:34:58.487Z,12.56
2023-04-26T18:40:27.322Z,12.29
2023-04-26T18:42:55.524Z,12.16
2023-04-26T18:45:28.569Z,12.20
2023-04-26T18:47:59.088Z,11.91
2023-04-26T18:50:27.441Z,12.28
2023-04-26T18:52:56.013Z,11.90
2023-04-26T18:55:32.832Z,12.06
2023-04-26T18:58:05.776Z,11.56
2023-04-26T19:00:37.729Z,11.84
2023-04-26T19:03:06.117Z,11.80
2023-04-26T19:05:37.463Z,11.41
2023-04-26T19:08:05.798Z,11.36
2023-04-26T19:10:38.657Z,11.26
2023-04-26T19:13:07.839Z,11.41
2023-04-26T19:15:36.629Z,11.10
2023-04-26T19:18:06.811Z,11.38
2023-04-26T19:20:35.444Z,11.08
2023-04-26T19:23:06.574Z,11.06
2023-04-26T19:25:38.016Z,10.92
2023-04-26T19:28:11.767Z,10.99
2023-04-26T19:30:40.158Z,11.17
2023-04-26T19:33:32.071Z,10.56
2023-04-26T19:36:00.392Z,10.81
2023-04-26T19:38:29.009Z,10.45
2023-04-26T19:40:59.081Z,10.91
2023-04-26T19:43:29.624Z,10.65
2023-04-26T19:46:11.920Z,10.88
2023-04-26T19:48:40.509Z,10.73
2023-04-26T19:51:11.224Z,10.84
2023-04-26T19:53:40.218Z,10.48
2023-04-26T19:56:11.114Z,10.80
2023-04-26T19:58:39.679Z,10.58
2023-04-26T20:01:08.144Z,10.54
2023-04-26T20:03:39.695Z,10.42
2023-04-26T20:06:11.816Z,10.37
2023-04-26T20:08:39.975Z,10.34
2023-04-26T20:11:15.033Z,10.03
2023-04-26T20:13:43.436Z,10.25
2023-04-26T20:16:12.740Z,10.07
2023-04-26T20:18:41.128Z,10.20
2023-04-26T20:21:09.514Z,10.21
2023-04-26T20:23:38.114Z,10.33
2023-04-26T20:26:06.373Z,10.35
2023-04-26T20:28:37.508Z,10.10
2023-04-26T20:31:07.695Z,9.85
2023-04-26T20:33:35.915Z,9.82
2023-04-26T20:36:05.282Z,9.81
2023-04-26T20:38:33.876Z,9.82
2023-04-26T20:41:02.450Z,9.95
2023-04-26T20:43:30.922Z,9.73
2023-04-26T20:46:00.786Z,10.01
2023-04-26T20:48:29.810Z,9.80
2023-04-26T20:50:59.012Z,10.20
2023-04-26T20:53:27.687Z,10.32
2023-04-26T20:55:56.205Z,10.34
2023-04-26T20:58:24.458Z,9.91
2023-04-26T21:00:54.029Z,9.98
2023-04-26T21:03:24.231Z,9.92
2023-04-26T21:05:52.888Z,9.79
2023-04-26T21:08:21.426Z,9.70
2023-04-26T21:10:49.516Z,9.49
2023-04-26T21:13:18.394Z,9.87
2023-04-26T21:15:47.393Z,9.71
2023-04-26T21:18:17.908Z,9.89
2023-04-26T21:20:47.650Z,9.83
2023-04-26T21:23:15.838Z,9.55
2023-04-26T21:25:46.520Z,9.68
2023-04-26T21:28:15.120Z,10.11
2023-04-26T21:30:43.530Z,9.58
2023-04-26T21:33:12.684Z,10.09
2023-04-26T21:35:40.908Z,9.54
2023-04-26T21:38:10.413Z,9.79
2023-04-26T21:40:39.628Z,9.99
2023-04-26T21:43:07.913Z,9.93
2023-04-26T21:45:35.942Z,9.49
2023-04-26T21:48:04.714Z,9.81
2023-04-26T21:50:33.171Z,9.51
2023-04-26T21:53:01.432Z,9.67
2023-04-26T21:55:30.957Z,9.71
2023-04-26T21:57:59.603Z,9.97
2023-04-26T22:00:28.322Z,9.72
2023-04-26T22:02:56.557Z,9.98
2023-04-26T22:05:25.949Z,9.96
2023-04-26T22:07:54.607Z,9.96
2023-04-26T22:10:22.661Z,9.94
2023-04-26T22:12:53.098Z,9.96
2023-04-26T22:15:21.204Z,9.91
2023-04-26T22:17:49.172Z,9.82
2023-04-26T22:20:17.298Z,9.85
2023-04-26T22:22:45.223Z,9.88
2023-04-26T22:25:13.159Z,9.91
2023-04-26T22:27:41.182Z,9.89
2023-04-26T22:30:23.812Z,9.87
2023-04-26T22:32:54.692Z,9.88
2023-04-26T22:35:23.708Z,9.75
2023-04-26T22:37:52.085Z,9.62
2023-04-26T22:40:20.486Z,9.59
2023-04-26T22:42:48.540Z,9.54
2023-04-26T22:45:18.105Z,9.60
2023-04-26T22:47:46.080Z,9.63
2023-04-26T22:50:13.998Z,9.66
2023-04-26T22:52:42.043Z,9.71
2023-04-26T22:55:10.822Z,9.66
2023-04-26T22:57:38.807Z,9.67
2023-04-26T23:00:09.612Z,9.76
2023-04-26T23:02:39.120Z,9.66
2023-04-26T23:05:10.319Z,9.52
2023-04-26T23:07:38.656Z,9.52
2023-04-26T23:10:07.596Z,9.52
2023-04-26T23:12:36.131Z,9.57
2023-04-26T23:15:05.225Z,9.62
2023-04-26T23:17:34.193Z,9.65
2023-04-26T23:20:11.590Z,9.60
2023-04-26T23:22:39.859Z,9.59
2023-04-26T23:25:09.129Z,9.68
2023-04-26T23:27:38.202Z,9.59
2023-04-26T23:30:07.332Z,9.61
2023-04-26T23:32:35.297Z,9.59
2023-04-26T23:35:05.592Z,9.59
2023-04-26T23:37:33.619Z,9.73
2023-04-26T23:40:01.663Z,9.68
2023-04-26T23:42:29.589Z,9.68
2023-04-26T23:44:57.512Z,9.63
2023-04-26T23:47:25.507Z,9.57
2023-04-26T23:49:53.397Z,9.54
2023-04-26T23:52:22.718Z,9.65
2023-04-26T23:54:50.622Z,9.70
2023-04-26T23:57:18.704Z,9.69
2023-04-26T23:59:46.759Z,9.69
